Time;durP1;ratioP1;P1;durP2;ratioP2;P2;SDS_P1;SDS_P2;PMS_P1;PMS_P2;Temp;Humidity;BMP_temperature;BMP_pressure;BME280_temperature;BME280_humidity;BME280_pressure;Samples;Min_cycle;Max_cycle;Signal;HPM_P1;HPM_P2
2024/03/26 00:01:23;;;;;;;;;51.50;39.00;;;;;1.29;100.00;98865.78;6273066;20;2875247;-46
2024/03/26 00:03:50;;;;;;;;;55.50;45.00;;;;;0.96;100.00;98868.75;6270525;20;2875395;-45
2024/03/26 00:06:17;;;;;;;;;43.00;36.00;;;;;0.87;100.00;98858.53;6272270;20;2848220;-46
2024/03/26 00:08:45;;;;;;;;;60.50;48.50;;;;;0.99;100.00;98860.72;6275917;20;2870086;-45
2024/03/26 00:11:13;;;;;;;;;61.00;41.00;;;;;0.97;100.00;98865.19;6274241;20;3638919;-45
2024/03/26 00:13:42;;;;;;;;;55.67;44.33;;;;;1.64;100.00;98864.47;6305123;20;2874503;-47
2024/03/26 00:16:09;;;;;;;;;52.50;45.00;;;;;1.19;100.00;98859.13;6303300;20;2863999;-48
2024/03/26 00:18:38;;;;;;;;;53.67;41.33;;;;;1.38;100.00;98868.09;6273390;20;2877531;-48
2024/03/26 00:21:06;;;;;;;;;46.00;40.33;;;;;1.15;100.00;98857.50;6305711;20;2868003;-46
2024/03/26 00:23:34;;;;;;;;;52.50;42.50;;;;;0.88;100.00;98860.25;6305742;20;2859778;-45
2024/03/26 00:26:02;;;;;;;;;60.00;44.33;;;;;0.52;100.00;98863.22;6272947;20;3613049;-46
2024/03/26 00:28:30;;;;;;;;;49.33;43.33;;;;;0.53;100.00;98846.50;6305233;20;2865948;-51
2024/03/26 00:30:58;;;;;;;;;41.50;39.00;;;;;0.62;100.00;98854.09;6304401;20;2859798;-46
2024/03/26 00:33:26;;;;;;;;;42.00;32.00;;;;;0.60;100.00;98857.69;6274630;20;2855509;-49
2024/03/26 00:35:53;;;;;;;;;49.00;42.50;;;;;0.62;100.00;98848.81;6271180;20;2871210;-48
2024/03/26 00:38:21;;;;;;;;;45.33;39.00;;;;;1.02;100.00;98850.03;6273750;20;3614885;-45
2024/03/26 00:40:49;;;;;;;;;47.50;35.00;;;;;1.25;100.00;98858.91;6304028;20;2876329;-49
2024/03/26 00:43:17;;;;;;;;;39.00;35.50;;;;;0.97;100.00;98861.69;6272181;20;2858604;-46
2024/03/26 00:45:45;;;;;;;;;37.50;31.00;;;;;0.28;100.00;98859.66;6270819;20;2851298;-46
2024/03/26 00:48:11;;;;;;;;;31.00;31.00;;;;;0.10;100.00;98850.56;6271946;20;2501106;-47
2024/03/26 00:50:38;;;;;;;;;44.00;30.50;;;;;-0.08;100.00;98845.88;6271629;20;2500320;-46
2024/03/26 00:53:05;;;;;;;;;26.00;24.00;;;;;0.77;100.00;98846.56;6269892;20;2496124;-45
2024/03/26 00:55:33;;;;;;;;;36.00;34.50;;;;;0.45;100.00;98848.53;6271626;20;2848201;-45
2024/03/26 00:57:59;;;;;;;;;53.50;41.00;;;;;0.73;100.00;98859.00;6270551;20;2508739;-47
2024/03/26 01:00:27;;;;;;;;;40.00;33.00;;;;;0.80;100.00;98851.72;6271876;20;2852483;-45
2024/03/26 01:02:54;;;;;;;;;37.00;33.50;;;;;0.50;100.00;98851.88;6270481;20;2850380;-47
2024/03/26 01:05:22;;;;;;;;;42.00;38.00;;;;;0.35;100.00;98853.25;6271610;20;2868105;-47
2024/03/26 01:07:49;;;;;;;;;50.50;41.50;;;;;1.13;100.00;98846.13;6265768;20;2506559;-48
2024/03/26 01:10:17;;;;;;;;;51.33;42.33;;;;;0.80;100.00;98846.44;6272162;20;2860902;-48
2024/03/26 01:12:45;;;;;;;;;59.67;43.67;;;;;0.96;100.00;98842.31;6304263;20;2879597;-47
2024/03/26 01:15:12;;;;;;;;;29.00;26.50;;;;;0.70;100.00;98843.25;6300416;20;2500283;-47
2024/03/26 01:17:40;;;;;;;;;42.00;33.00;;;;;0.14;100.00;98836.34;6271994;20;2871186;-45
2024/03/26 01:20:08;;;;;;;;;47.00;38.00;;;;;0.34;100.00;98837.44;6273375;20;2880477;-49
2024/03/26 01:22:35;;;;;;;;;44.50;37.00;;;;;0.60;100.00;98828.63;6271193;20;2859654;-45
2024/03/26 01:25:02;;;;;;;;;36.00;36.00;;;;;0.86;100.00;98833.00;6266573;20;2504446;-47
2024/03/26 01:27:31;;;;;;;;;41.67;37.67;;;;;0.58;100.00;98820.78;6269705;20;2865123;-46
2024/03/26 01:29:58;;;;;;;;;44.50;34.50;;;;;0.68;100.00;98831.00;6304396;20;2869004;-46
2024/03/26 01:32:25;;;;;;;;;45.00;35.00;;;;;1.01;100.00;98826.31;6268782;20;2508647;-46
2024/03/26 01:34:53;;;;;;;;;35.50;35.50;;;;;0.46;100.00;98828.25;6271144;20;2860710;-48
2024/03/26 01:37:20;;;;;;;;;44.50;36.00;;;;;0.44;100.00;98823.03;6273021;20;2863863;-45
2024/03/26 01:39:47;;;;;;;;;35.50;33.00;;;;;0.01;100.00;98819.19;6270232;20;2508615;-46
2024/03/26 01:42:15;;;;;;;;;40.50;39.50;;;;;0.75;100.00;98821.97;6272179;20;2861786;-51
2024/03/26 01:44:42;;;;;;;;;48.50;38.50;;;;;0.41;100.00;98823.13;6270690;20;2870482;-45
2024/03/26 01:47:10;;;;;;;;;43.50;39.50;;;;;0.18;100.00;98822.13;6270588;20;2867033;-45
2024/03/26 01:49:37;;;;;;;;;51.00;38.00;;;;;0.61;100.00;98825.97;6266572;20;2500284;-48
2024/03/26 01:52:05;;;;;;;;;41.00;41.00;;;;;0.51;100.00;98829.84;6271621;20;2859795;-46
2024/03/26 01:54:34;;;;;;;;;51.00;39.00;;;;;0.90;100.00;98826.69;6271124;20;2866038;-47
2024/03/26 01:57:02;;;;;;;;;45.00;41.00;;;;;0.19;100.00;98829.16;6303586;20;2872722;-45
2024/03/26 01:59:30;;;;;;;;;47.67;40.67;;;;;0.32;100.00;98836.66;6271550;20;2864908;-45
2024/03/26 02:01:58;;;;;;;;;49.50;40.00;;;;;0.62;100.00;98832.94;6303571;20;2858609;-47
2024/03/26 02:04:26;;;;;;;;;49.67;39.67;;;;;0.63;100.00;98833.81;6269490;20;2880523;-45
2024/03/26 02:06:53;;;;;;;;;46.00;42.50;;;;;0.50;100.00;98837.78;6299367;20;2500739;-46
2024/03/26 02:09:20;;;;;;;;;48.00;45.00;;;;;0.39;100.00;98838.16;6272086;20;2862822;-47
2024/03/26 02:11:48;;;;;;;;;56.50;43.00;;;;;0.30;100.00;98831.44;6269524;20;2873417;-47
2024/03/26 02:14:18;;;;;;;;;58.33;42.33;;;;;0.17;100.00;98838.88;6271606;20;2878430;-48
2024/03/26 02:16:46;;;;;;;;;59.67;45.67;;;;;0.43;100.00;98847.72;6302121;20;2876360;-47
2024/03/26 02:19:15;;;;;;;;;67.50;49.50;;;;;0.19;100.00;98844.13;6300413;20;2869043;-47
2024/03/26 02:21:44;;;;;;;;;64.67;46.33;;;;;0.55;100.00;98846.41;6270380;20;2872250;-47
2024/03/26 02:24:11;;;;;;;;;61.50;47.50;;;;;0.30;100.00;98849.91;6302207;20;2869049;-48
2024/03/26 02:26:39;;;;;;;;;65.00;49.50;;;;;-0.10;100.00;98842.44;6269963;20;2870106;-46
2024/03/26 02:29:06;;;;;;;;;54.00;46.00;;;;;0.26;100.00;98839.50;6270144;20;2869063;-46
2024/03/26 02:31:35;;;;;;;;;73.00;51.00;;;;;0.22;100.00;98844.88;6269928;20;2886831;-46
2024/03/26 02:34:03;;;;;;;;;64.67;46.33;;;;;0.41;100.00;98839.84;6300028;20;2880586;-46
2024/03/26 02:36:31;;;;;;;;;52.50;44.50;;;;;0.37;100.00;98845.25;6305780;20;2854508;-46
2024/03/26 02:38:59;;;;;;;;;56.50;47.00;;;;;0.06;100.00;98848.94;6276190;20;2866969;-47
2024/03/26 02:41:27;;;;;;;;;54.67;43.67;;;;;-0.57;100.00;98848.28;6277097;20;2868394;-46
2024/03/26 02:43:55;;;;;;;;;47.50;43.00;;;;;-0.40;100.00;98846.88;6306326;20;2854452;-46
2024/03/26 02:46:22;;;;;;;;;53.00;42.50;;;;;-0.24;100.00;98854.28;6276400;20;2860717;-45
2024/03/26 02:48:51;;;;;;;;;60.67;45.00;;;;;-0.09;100.00;98852.06;6272942;20;2877536;-48
2024/03/26 02:51:18;;;;;;;;;52.00;42.00;;;;;-0.23;100.00;98844.59;6307446;20;2853403;-46
2024/03/26 02:53:47;;;;;;;;;59.33;45.67;;;;;0.15;100.00;98848.63;6274390;20;2874373;-47
2024/03/26 02:56:15;;;;;;;;;48.33;38.33;;;;;-0.18;100.00;98855.88;6307918;20;2880553;-47
2024/03/26 02:58:43;;;;;;;;;43.50;36.50;;;;;-0.02;100.00;98853.59;6305702;20;2865904;-45
2024/03/26 03:01:14;;;;;;;;;56.00;44.00;;;;;-0.03;100.00;98850.13;6275596;20;2863890;-46
2024/03/26 03:03:42;;;;;;;;;60.67;45.67;;;;;-0.11;100.00;98848.59;6272372;20;2877363;-45
2024/03/26 03:06:10;;;;;;;;;46.50;37.50;;;;;-0.08;100.00;98851.16;6298938;20;2500286;-46
2024/03/26 03:08:38;;;;;;;;;65.00;51.00;;;;;-0.21;100.00;98848.06;6269710;20;2856620;-46
2024/03/26 03:11:06;;;;;;;;;52.00;43.00;;;;;-0.33;100.00;98854.56;6273378;20;2500386;-46
2024/03/26 03:13:33;;;;;;;;;52.50;45.50;;;;;-0.19;100.00;98853.25;6271454;20;2861904;-48
2024/03/26 03:16:02;;;;;;;;;57.33;45.00;;;;;-0.19;100.00;98853.25;6270813;20;2873234;-48
2024/03/26 03:18:30;;;;;;;;;51.67;37.67;;;;;-0.04;100.00;98858.06;6303694;20;2884706;-45
2024/03/26 03:20:58;;;;;;;;;51.50;42.00;;;;;-0.21;100.00;98861.25;6305966;20;2856640;-49
2024/03/26 03:23:26;;;;;;;;;41.00;35.00;;;;;-0.24;100.00;98862.22;6269922;20;2500274;-46
2024/03/26 03:25:57;;;;;;;;;45.00;43.50;;;;;-0.09;100.00;98857.34;6271588;20;2858605;-47
2024/03/26 03:28:25;;;;;;;;;53.67;43.00;;;;;-0.38;100.00;98858.25;6273709;20;2875332;-49
2024/03/26 03:30:53;;;;;;;;;51.00;44.50;;;;;-0.78;100.00;98849.75;6304669;20;2885795;-51
2024/03/26 03:33:21;;;;;;;;;52.67;42.67;;;;;-0.82;100.00;98848.09;6274076;20;2883802;-45
2024/03/26 03:35:51;;;;;;;;;48.33;44.00;;;;;-0.97;100.00;98848.56;6299817;20;2873336;-46
2024/03/26 03:38:19;;;;;;;;;68.00;49.00;;;;;-0.83;100.00;98846.41;6306594;20;2877319;-46
2024/03/26 03:40:49;;;;;;;;;47.00;38.00;;;;;-0.80;100.00;98843.66;6301613;20;2870195;-47
2024/03/26 03:43:17;;;;;;;;;63.67;43.33;;;;;-0.74;100.00;98839.97;6272762;20;3635917;-46
2024/03/26 03:45:45;;;;;;;;;54.33;45.00;;;;;-0.71;100.00;98839.88;6302421;20;2858600;-45
2024/03/26 03:48:13;;;;;;;;;64.00;47.00;;;;;-0.86;100.00;98835.94;6299886;20;2873372;-48
2024/03/26 03:50:40;;;;;;;;;46.00;41.00;;;;;-0.08;100.00;98840.59;6268586;20;2500443;-46
2024/03/26 03:53:07;;;;;;;;;50.00;41.50;;;;;-0.49;100.00;98845.41;6273258;20;2866944;-46
2024/03/26 03:55:35;;;;;;;;;64.00;47.50;;;;;-0.63;100.00;98843.19;6271720;20;2870068;-48
2024/03/26 03:58:03;;;;;;;;;61.67;43.33;;;;;-0.28;100.00;98839.47;6274681;20;2877441;-48
2024/03/26 04:00:31;;;;;;;;;56.00;44.50;;;;;-0.26;100.00;98836.78;6304363;20;2874488;-51
2024/03/26 04:02:59;;;;;;;;;60.00;46.33;;;;;-0.81;100.00;98834.03;6272684;20;2870066;-46
2024/03/26 04:05:27;;;;;;;;;58.50;46.50;;;;;-0.73;100.00;98842.59;6301685;20;2874247;-47
2024/03/26 04:07:54;;;;;;;;;68.50;51.50;;;;;-0.43;100.00;98849.63;6268080;20;2495051;-48
2024/03/26 04:10:20;;;;;;;;;71.00;53.50;;;;;-0.13;100.00;98853.06;6271266;20;2500328;-45
2024/03/26 04:12:48;;;;;;;;;65.50;51.00;;;;;0.13;100.00;98850.47;6271739;20;2865870;-47
2024/03/26 04:15:15;;;;;;;;;64.50;49.00;;;;;0.35;100.00;98853.25;6272223;20;2869055;-46
2024/03/26 04:17:42;;;;;;;;;66.00;52.50;;;;;-0.47;100.00;98855.00;6269738;20;2495065;-46
2024/03/26 04:20:11;;;;;;;;;130.67;113.00;;;;;0.02;100.00;98857.00;6273560;20;3714862;-45
2024/03/26 04:22:39;;;;;;;;;114.67;88.33;;;;;0.09;100.00;98866.44;6273534;20;3692945;-47
2024/03/26 04:25:08;;;;;;;;;81.00;60.33;;;;;-0.19;100.00;98863.81;6269495;20;3625267;-45
2024/03/26 04:27:36;;;;;;;;;101.00;72.67;;;;;-0.68;100.00;98861.78;6303047;20;3664917;-47
2024/03/26 04:30:08;;;;;;;;;96.33;66.00;;;;;-1.04;100.00;98863.69;6302467;20;3662800;-45
2024/03/26 04:32:36;;;;;;;;;67.00;50.00;;;;;-0.49;100.00;98855.94;6306284;20;2879471;-45
2024/03/26 04:35:05;;;;;;;;;65.33;47.33;;;;;-0.31;100.00;98855.38;6270924;20;3645096;-49
2024/03/26 04:37:33;;;;;;;;;50.00;42.00;;;;;-0.86;100.00;98851.75;6303251;20;2868027;-46
2024/03/26 04:40:01;;;;;;;;;91.33;70.00;;;;;-0.27;100.00;98864.91;6274161;20;3650906;-45
2024/03/26 04:42:30;;;;;;;;;77.00;58.67;;;;;-0.29;100.00;98861.47;6303983;20;2871118;-45
2024/03/26 04:44:58;;;;;;;;;82.33;61.00;;;;;-0.74;100.00;98851.41;6301958;20;2888906;-45
2024/03/26 04:47:26;;;;;;;;;80.00;61.00;;;;;-0.42;100.00;98857.50;6303000;20;2879464;-48
2024/03/26 04:49:53;;;;;;;;;65.50;51.00;;;;;-0.82;100.00;98858.66;6272324;20;2856522;-45
2024/03/26 04:52:21;;;;;;;;;71.50;55.00;;;;;-0.83;100.00;98854.31;6273434;20;2863924;-46
2024/03/26 04:54:47;;;;;;;;;67.00;53.50;;;;;-0.67;100.00;98847.66;6268828;20;2499455;-45
2024/03/26 04:57:14;;;;;;;;;72.50;57.50;;;;;-0.30;100.00;98856.25;6268758;20;2500293;-46
2024/03/26 04:59:42;;;;;;;;;74.50;54.50;;;;;-0.09;100.00;98858.19;6269786;20;2885761;-46
2024/03/26 05:02:10;;;;;;;;;74.00;53.33;;;;;-0.16;100.00;98854.03;6273101;20;2873159;-45
2024/03/26 05:04:37;;;;;;;;;53.00;43.50;;;;;0.64;100.00;98860.19;6299892;20;2871508;-48
2024/03/26 05:07:06;;;;;;;;;64.33;47.33;;;;;0.74;100.00;98857.19;6272756;20;3639830;-47
2024/03/26 05:09:34;;;;;;;;;56.50;46.00;;;;;1.41;100.00;98862.69;6302574;20;2864580;-46
2024/03/26 05:12:02;;;;;;;;;55.00;44.00;;;;;1.32;100.00;98870.97;6273132;20;2876347;-44
2024/03/26 05:14:30;;;;;;;;;60.00;46.50;;;;;1.95;100.00;98872.06;6302347;20;2860688;-46
2024/03/26 05:16:57;;;;;;;;;62.00;48.00;;;;;1.29;100.00;98876.34;6272756;20;2865933;-45
2024/03/26 05:19:25;;;;;;;;;58.50;47.50;;;;;1.45;100.00;98871.34;6271436;20;2862781;-45
2024/03/26 05:21:52;;;;;;;;;65.00;49.00;;;;;0.70;100.00;98872.31;6271303;20;2870117;-43
2024/03/26 05:24:19;;;;;;;;;58.50;48.50;;;;;1.75;100.00;98885.22;6267336;20;2496130;-43
2024/03/26 05:26:46;;;;;;;;;64.00;50.50;;;;;3.29;100.00;98871.69;6269287;20;2500394;-46
2024/03/26 05:29:16;;;;;;;;;70.00;56.00;;;;;1.61;100.00;98879.59;6266563;20;2500304;-46
2024/03/26 05:31:44;;;;;;;;;65.50;49.00;;;;;1.56;100.00;98869.19;6270710;20;2870305;-43
2024/03/26 05:34:11;;;;;;;;;64.00;48.00;;;;;2.15;100.00;98870.41;6268068;20;2500312;-45
2024/03/26 05:36:38;;;;;;;;;68.50;52.00;;;;;2.72;100.00;98868.91;6270928;20;2880453;-47
2024/03/26 05:39:08;;;;;;;;;70.50;55.00;;;;;2.69;100.00;98868.19;6271032;20;2874245;-49
2024/03/26 05:41:36;;;;;;;;;63.50;50.50;;;;;2.48;100.00;98869.97;6271366;20;2863821;-44
2024/03/26 05:44:04;;;;;;;;;58.33;49.00;;;;;2.62;100.00;98872.88;6271298;20;3589880;-43
2024/03/26 05:46:36;;;;;;;;;63.00;51.50;;;;;1.98;100.00;98865.78;6272005;20;2850435;-48
2024/03/26 05:49:02;;;;;;;;;54.50;45.00;;;;;2.88;100.00;98878.84;6266475;20;2495747;-44
2024/03/26 05:51:29;;;;;;;;;56.00;46.00;;;;;3.10;100.00;98879.63;6266675;20;2495151;-45
2024/03/26 05:53:57;;;;;;;;;51.50;41.00;;;;;2.93;100.00;98882.16;6270839;20;2868115;-45
2024/03/26 05:56:24;;;;;;;;;47.50;43.50;;;;;2.29;100.00;98872.47;6271587;20;2861738;-47
2024/03/26 05:58:54;;;;;;;;;56.50;42.00;;;;;2.32;100.00;98870.59;6271608;20;2881581;-44
2024/03/26 06:01:22;;;;;;;;;54.50;39.00;;;;;5.13;94.24;98875.16;6269408;20;2850319;-46
2024/03/26 06:03:50;;;;;;;;;51.50;45.50;;;;;5.38;91.69;98880.91;6269896;20;2868568;-45
2024/03/26 06:06:18;;;;;;;;;52.67;41.00;;;;;9.31;71.81;98891.66;6271249;20;2871262;-45
2024/03/26 06:08:46;;;;;;;;;51.50;41.00;;;;;9.43;61.28;98898.84;6300505;20;2869148;-46
2024/03/26 06:11:13;;;;;;;;;52.00;42.00;;;;;6.92;72.52;98888.28;6274147;20;2846154;-49
2024/03/26 06:13:40;;;;;;;;;46.00;40.50;;;;;4.88;81.71;98886.22;6273200;20;2493031;-45
2024/03/26 06:16:11;;;;;;;;;65.33;52.33;;;;;3.64;95.44;98886.03;6275773;20;2878417;-47
2024/03/26 06:18:39;;;;;;;;;45.50;40.50;;;;;3.48;100.00;98874.41;6305738;20;2863781;-48
2024/03/26 06:21:06;;;;;;;;;55.50;41.00;;;;;3.70;100.00;98869.81;6275955;20;2860701;-46
2024/03/26 06:23:35;;;;;;;;;58.00;43.67;;;;;3.97;100.00;98866.78;6276735;20;2876606;-47
2024/03/26 06:26:02;;;;;;;;;50.00;40.00;;;;;3.69;100.00;98862.78;6306347;20;2878445;-45
2024/03/26 06:28:31;;;;;;;;;56.00;40.00;;;;;4.16;100.00;98859.66;6275380;20;2883766;-45
2024/03/26 06:30:59;;;;;;;;;45.67;39.00;;;;;4.59;100.00;98862.84;6307274;20;2859786;-47
2024/03/26 06:33:27;;;;;;;;;55.00;42.50;;;;;4.72;98.51;98859.56;6307078;20;2855511;-47
2024/03/26 06:35:55;;;;;;;;;45.67;36.67;;;;;4.59;97.91;98869.94;6274349;20;2857631;-46
2024/03/26 06:38:23;;;;;;;;;47.00;39.67;;;;;5.77;95.43;98877.06;6306267;20;2875411;-47
2024/03/26 06:40:51;;;;;;;;;43.00;37.00;;;;;5.78;92.09;98880.56;6306440;20;2720124;-46
2024/03/26 06:43:19;;;;;;;;;42.33;33.33;;;;;6.14;89.46;98877.69;6307939;20;3620085;-45
2024/03/26 06:45:47;;;;;;;;;36.33;34.33;;;;;6.58;86.04;98872.47;6309615;20;3597144;-47
2024/03/26 06:48:15;;;;;;;;;44.00;36.33;;;;;6.45;83.13;98876.81;6273255;20;2867048;-46
2024/03/26 06:50:42;;;;;;;;;35.67;35.00;;;;;6.68;84.46;98870.09;6308678;20;3586749;-47
2024/03/26 06:53:10;;;;;;;;;41.67;35.67;;;;;6.62;84.13;98873.16;6308476;20;3599246;-46
2024/03/26 06:55:38;;;;;;;;;37.33;35.00;;;;;7.29;82.69;98876.25;6271321;20;2854426;-47
2024/03/26 06:58:06;;;;;;;;;39.00;35.67;;;;;6.89;85.05;98872.47;6309300;20;3581577;-46
2024/03/26 07:00:33;;;;;;;;;39.67;34.67;;;;;6.40;83.47;98859.31;6306101;20;3597310;-43
2024/03/26 07:03:02;;;;;;;;;45.00;38.67;;;;;7.36;81.84;98852.72;6274510;20;2870369;-45
2024/03/26 07:05:29;;;;;;;;;32.00;31.00;;;;;7.57;83.60;98853.19;6308859;20;3470186;-44
2024/03/26 07:07:57;;;;;;;;;38.00;33.50;;;;;7.48;79.88;98849.28;6305556;20;2852506;-43
2024/03/26 07:10:24;;;;;;;;;37.00;32.50;;;;;7.88;78.82;98852.09;6274554;20;2850280;-45
2024/03/26 07:12:52;;;;;;;;;39.50;33.50;;;;;8.04;78.76;98847.47;6275058;20;2852432;-43
2024/03/26 07:15:20;;;;;;;;;25.33;25.00;;;;;7.64;79.64;98855.38;6274410;20;2854446;-43
2024/03/26 07:17:48;;;;;;;;;38.00;35.33;;;;;7.46;78.85;98864.53;6309673;20;3586723;-44
2024/03/26 07:20:15;;;;;;;;;33.50;33.50;;;;;8.03;79.88;98859.16;6275382;20;2837781;-43
2024/03/26 07:22:43;;;;;;;;;35.33;31.67;;;;;9.07;74.03;98869.25;6274183;20;3599289;-42
2024/03/26 07:25:11;;;;;;;;;34.33;32.33;;;;;8.42;73.45;98857.50;6307759;20;3583797;-43
2024/03/26 07:27:38;;;;;;;;;27.00;25.50;;;;;8.78;75.60;98870.25;6273229;20;2838922;-43
2024/03/26 07:30:08;;;;;;;;;37.00;28.67;;;;;8.20;74.43;98865.22;6274332;20;2872321;-43
2024/03/26 07:32:36;;;;;;;;;32.33;29.00;;;;;8.98;76.53;98871.59;6309407;20;3587765;-44
2024/03/26 07:35:04;;;;;;;;;31.00;30.00;;;;;8.64;77.60;98867.66;6273506;20;2848222;-44
2024/03/26 07:37:33;;;;;;;;;28.00;28.00;;;;;9.55;70.55;98882.88;6275294;20;2842003;-43
2024/03/26 07:40:01;;;;;;;;;27.67;26.67;;;;;10.42;69.95;98875.75;6311467;20;3590871;-43
2024/03/26 07:42:28;;;;;;;;;29.50;29.50;;;;;9.91;67.51;98874.03;6274408;20;2847149;-43
2024/03/26 07:44:56;;;;;;;;;29.00;28.00;;;;;9.82;68.85;98880.94;6276062;20;2839866;-43
2024/03/26 07:47:23;;;;;;;;;27.00;27.00;;;;;9.96;70.29;98889.81;6274893;20;2847192;-43
2024/03/26 07:49:51;;;;;;;;;27.67;27.00;;;;;9.85;69.30;98878.03;6276956;20;3584812;-43
2024/03/26 07:52:20;;;;;;;;;24.33;24.33;;;;;9.86;69.61;98890.44;6272361;20;2855698;-43
2024/03/26 07:54:48;;;;;;;;;31.67;27.33;;;;;10.53;67.52;98879.34;6305515;20;2856556;-43
2024/03/26 07:57:16;;;;;;;;;29.00;25.00;;;;;9.67;67.68;98882.88;6304342;20;2858705;-43
2024/03/26 07:59:44;;;;;;;;;26.33;25.33;;;;;10.47;67.27;98878.94;6307675;20;3596190;-43
2024/03/26 08:02:11;;;;;;;;;29.00;25.50;;;;;9.58;67.15;98883.50;6274882;20;2862875;-43
2024/03/26 08:04:42;;;;;;;;;26.33;26.33;;;;;10.20;68.36;98888.03;6273141;20;2853572;-43
2024/03/26 08:07:10;;;;;;;;;26.33;24.00;;;;;10.67;67.25;98881.00;6308418;20;3596112;-44
2024/03/26 08:09:38;;;;;;;;;27.00;25.33;;;;;10.45;66.87;98880.88;6278247;20;3590880;-43
2024/03/26 08:12:07;;;;;;;;;26.33;22.33;;;;;11.31;64.62;98885.13;6274204;20;2850359;-43
2024/03/26 08:14:37;;;;;;;;;30.00;25.67;;;;;11.82;61.76;98879.31;6303861;20;2860753;-44
2024/03/26 08:17:04;;;;;;;;;22.67;22.67;;;;;12.43;59.34;98879.78;6308022;20;3585791;-44
2024/03/26 08:19:32;;;;;;;;;21.50;20.50;;;;;13.08;56.57;98887.84;6272429;20;2835783;-43
2024/03/26 08:21:59;;;;;;;;;17.50;16.50;;;;;12.15;58.62;98874.94;6275533;20;2835780;-43
2024/03/26 08:24:26;;;;;;;;;21.00;21.00;;;;;12.54;57.12;98880.72;6276176;20;2852371;-46
2024/03/26 08:26:54;;;;;;;;;22.50;20.50;;;;;11.82;56.04;98880.19;6275146;20;2832702;-44
2024/03/26 08:29:21;;;;;;;;;19.00;16.50;;;;;12.21;55.75;98877.97;6275160;20;2833669;-44
2024/03/26 08:31:49;;;;;;;;;20.50;19.00;;;;;12.50;55.32;98886.34;6275188;20;2837823;-43
2024/03/26 08:34:16;;;;;;;;;22.00;17.00;;;;;12.60;55.08;98882.91;6269623;20;2500332;-44
2024/03/26 08:36:42;;;;;;;;;24.00;20.00;;;;;13.49;52.30;98888.88;6272846;20;2500386;-43
2024/03/26 08:39:10;;;;;;;;;19.00;17.00;;;;;13.91;52.62;98888.81;6273705;20;2711758;-44
2024/03/26 08:41:38;;;;;;;;;17.50;13.00;;;;;13.74;51.52;98884.91;6304918;20;2811881;-43
2024/03/26 08:44:08;;;;;;;;;17.00;14.00;;;;;13.97;51.57;98885.56;6272424;20;3541964;-44
2024/03/26 08:46:35;;;;;;;;;11.33;11.33;;;;;13.62;51.50;98884.13;6273797;20;2788893;-43
2024/03/26 08:49:03;;;;;;;;;18.33;15.67;;;;;13.63;50.32;98885.84;6304553;20;3552405;-44
2024/03/26 08:51:29;;;;;;;;;13.00;13.00;;;;;13.58;50.27;98888.06;6276274;20;2500359;-45
2024/03/26 08:53:58;;;;;;;;;15.67;14.67;;;;;13.79;50.16;98886.19;6272242;20;3533581;-45
2024/03/26 08:56:26;;;;;;;;;11.60;9.40;;;;;14.25;48.88;98890.22;6299684;20;2748234;-45
2024/03/26 08:58:55;;;;;;;;;11.00;10.67;;;;;13.55;48.50;98888.34;6273390;20;3529465;-44
2024/03/26 09:01:22;;;;;;;;;12.00;12.00;;;;;14.36;48.68;98883.00;6306111;20;2788905;-44
2024/03/26 09:03:49;;;;;;;;;11.50;11.00;;;;;14.22;48.59;98884.25;6308923;20;2789877;-44
2024/03/26 09:06:17;;;;;;;;;13.00;13.00;;;;;13.89;48.85;98890.78;6275836;20;3534889;-44
2024/03/26 09:08:43;;;;;;;;;11.00;11.00;;;;;13.98;47.38;98889.97;6310068;20;2792005;-43
2024/03/26 09:11:11;;;;;;;;;14.00;13.00;;;;;14.54;47.60;98885.94;6275436;20;3525258;-48
2024/03/26 09:13:39;;;;;;;;;12.67;10.67;;;;;14.61;46.83;98887.06;6305508;20;3524375;-47
2024/03/26 09:16:10;;;;;;;;;9.67;9.67;;;;;14.23;47.40;98884.09;6306362;20;2763859;-47
2024/03/26 09:18:37;;;;;;;;;14.00;14.00;;;;;14.07;47.70;98885.63;6303694;20;3527452;-48
2024/03/26 09:21:05;;;;;;;;;12.33;12.00;;;;;15.42;46.43;98881.38;6301001;20;3527442;-51
2024/03/26 09:23:31;;;;;;;;;11.00;11.00;;;;;15.04;45.39;98881.28;6309195;20;2791942;-48
2024/03/26 09:25:59;;;;;;;;;11.00;9.33;;;;;14.35;47.44;98875.88;6272641;20;2780464;-50
2024/03/26 09:28:25;;;;;;;;;11.00;10.00;;;;;14.88;45.67;98878.28;6309226;20;2789880;-51
2024/03/26 09:30:52;;;;;;;;;11.00;11.00;;;;;15.46;45.31;98889.06;6278261;20;2796258;-51
2024/03/26 09:33:19;;;;;;;;;10.00;10.00;;;;;14.79;45.23;98879.97;6279965;20;2788822;-50
2024/03/26 09:35:46;;;;;;;;;11.67;10.33;;;;;15.11;43.86;98882.41;6271857;20;2788834;-49
2024/03/26 09:38:14;;;;;;;;;14.00;11.67;;;;;15.71;44.53;98871.34;6303403;20;3511851;-51
2024/03/26 09:40:48;;;;;;;;;11.00;11.00;;;;;15.23;45.01;98877.69;6301365;20;2794087;-51
2024/03/26 09:43:15;;;;;;;;;10.00;10.00;;;;;16.44;43.25;98874.16;6303578;20;2789872;-52
2024/03/26 09:45:43;;;;;;;;;13.00;10.67;;;;;15.93;43.31;98875.56;6306704;20;2792050;-48
2024/03/26 09:48:13;;;;;;;;;8.14;8.14;;;;;16.09;42.30;98874.94;6353951;20;3464885;-49
2024/03/26 09:50:41;;;;;;;;;9.50;7.00;;;;;16.59;41.21;98870.94;6316964;20;2762792;-50
2024/03/26 09:53:13;;;;;;;;;8.00;8.00;;;;;16.48;41.28;98871.16;6303656;20;2752402;-49
2024/03/26 09:55:40;;;;;;;;;8.00;8.00;;;;;15.89;39.86;98865.19;6277069;20;2742022;-50
2024/03/26 09:58:07;;;;;;;;;8.00;8.00;;;;;16.39;39.82;98870.22;6284064;20;2733615;-49
2024/03/26 10:00:35;;;;;;;;;11.50;8.00;;;;;16.14;39.61;98860.91;6288442;20;2771196;-48
2024/03/26 10:03:06;;;;;;;;;7.50;7.00;;;;;15.98;36.60;98865.16;6280843;20;2732728;-52
2024/03/26 10:05:33;;;;;;;;;7.50;6.00;;;;;16.41;38.17;98857.38;6281611;20;2746245;-50
2024/03/26 10:08:00;;;;;;;;;9.00;7.00;;;;;16.22;37.50;98869.19;6283300;20;2739885;-53
2024/03/26 10:10:26;;;;;;;;;9.00;9.00;;;;;15.83;37.60;98863.94;6281460;20;2764953;-48
2024/03/26 10:12:53;;;;;;;;;7.50;7.00;;;;;16.15;38.36;98857.22;6282667;20;2741966;-47
2024/03/26 10:15:29;;;;;;;;;8.14;7.00;;;;;16.44;38.33;98860.63;6321428;20;3448280;-49
2024/03/26 10:17:57;;;;;;;;;5.20;4.00;;;;;17.09;36.30;98862.31;6334959;20;2752503;-48
2024/03/26 10:20:29;;;;;;;;;8.60;4.20;;;;;17.02;34.66;98861.22;6302897;20;2730531;-52
2024/03/26 10:23:06;;;;;;;;;8.00;7.00;;;;;16.29;35.51;98858.56;6311552;20;2748271;-47
2024/03/26 10:25:34;;;;;;;;;7.00;6.60;;;;;16.21;35.44;98845.78;6305758;20;2729597;-50
2024/03/26 10:28:04;;;;;;;;;6.60;6.60;;;;;16.20;35.33;98838.66;6337868;20;2748210;-49
2024/03/26 10:30:30;;;;;;;;;3.00;3.00;;;;;16.36;35.03;98829.88;6313934;20;2740908;-48
2024/03/26 10:33:00;;;;;;;;;7.80;6.00;;;;;16.49;34.92;98832.22;6303851;20;2742987;-50
2024/03/26 10:35:28;;;;;;;;;7.50;7.50;;;;;16.37;35.08;98835.13;6308135;20;2737814;-50
2024/03/26 10:37:57;;;;;;;;;4.50;4.50;;;;;15.66;34.63;98835.72;6280539;20;2745188;-51
2024/03/26 10:40:33;;;;;;;;;8.50;8.00;;;;;16.09;35.08;98831.59;6281375;20;2746132;-52
2024/03/26 10:43:01;;;;;;;;;5.00;5.00;;;;;16.63;34.40;98831.69;6281772;20;2747178;-51
2024/03/26 10:45:28;;;;;;;;;5.00;5.00;;;;;16.30;34.31;98830.47;6279746;20;2750286;-54
2024/03/26 10:47:56;;;;;;;;;6.00;6.00;;;;;16.64;35.06;98825.25;6281357;20;2748254;-53
2024/03/26 10:50:25;;;;;;;;;6.20;5.80;;;;;16.74;34.82;98831.44;6304999;20;2743018;-52
2024/03/26 10:52:54;;;;;;;;;7.20;5.20;;;;;16.68;34.00;98823.94;6335806;20;2743121;-51
2024/03/26 10:55:21;;;;;;;;;4.00;4.00;;;;;16.48;34.38;98819.66;6309274;20;2750288;-51
2024/03/26 10:57:48;;;;;;;;;7.00;3.50;;;;;16.35;34.13;98820.03;6281088;20;2752474;-47
2024/03/26 11:00:15;;;;;;;;;7.00;5.00;;;;;16.76;33.33;98806.91;6280198;20;2749167;-50
2024/03/26 11:02:51;;;;;;;;;3.00;3.00;;;;;16.84;33.65;98817.84;6283177;20;2741977;-46
2024/03/26 11:05:18;;;;;;;;;6.00;6.00;;;;;16.74;33.92;98809.75;6281438;20;2739862;-50